Strona główna
METAR-TAF:

METAR-TAF

Lotnisko :

Butler, Pensylwania, Stany Zjednoczone

Szerokość geograficzna: 40-47N, Długość geograficzna: 079-57W, wysokość: 380 m

Aktualna obserwacja pogody

Raport powstał 44 minut temu, godzina 16:56 UTC
Wiatr 11 kt od południowo-południowy zachód
Temperatura 27°C
Wilgotność 70%
Ciśnienie 1011 hPa
Widzialność: 16.1 km
Przerywane chmury na wysokości 12000 ft

METAR: KBTP 241656Z AUTO 21011KT 10SM BKN120 27/21 A2985 RMK AO2 SLP105 T02720206 PNO $

czas: 13:40 (17:40 UTC)


TAF: brakujący

Obserwacja i prognoza pogody dla ponad 4000 lotnisk (raport METAR i TAF).

Dostępne stacje oznaczono żółtymi i czerwonymi punktami na mapie.

Najedź kursorem aby zobaczyć nazwę stacji.

Kliknij aby zobaczyć obserwacje i prognozy pogody.

Aby zmienić mapę: kliknij na zielony przycisk z czarnym krzyżykiem, aby powiększyć; na zielony przycisk z myślnikiem, aby pomniejszyć; na zielone strzałki, aby przejść do map sąsiednich.


METAR-TAF: